sensor_id;sensor_type;location;lat;lon;timestamp;temperature;humidity
38237;DHT22;50101;49.438;11.098;2023-08-06T00:00:58;22.40;67.90
38237;DHT22;50101;49.438;11.098;2023-08-06T00:03:25;22.40;67.90
38237;DHT22;50101;49.438;11.098;2023-08-06T00:05:52;22.40;67.90
38237;DHT22;50101;49.438;11.098;2023-08-06T00:08:18;22.40;67.90
38237;DHT22;50101;49.438;11.098;2023-08-06T00:10:47;22.40;67.90
38237;DHT22;50101;49.438;11.098;2023-08-06T00:13:15;22.40;67.90
38237;DHT22;50101;49.438;11.098;2023-08-06T00:15:41;22.40;67.90
38237;DHT22;50101;49.438;11.098;2023-08-06T00:18:08;22.40;67.80
38237;DHT22;50101;49.438;11.098;2023-08-06T00:20:35;22.40;67.90
38237;DHT22;50101;49.438;11.098;2023-08-06T00:23:02;22.40;67.80
38237;DHT22;50101;49.438;11.098;2023-08-06T00:25:29;22.40;67.80
38237;DHT22;50101;49.438;11.098;2023-08-06T00:27:55;22.40;67.90
38237;DHT22;50101;49.438;11.098;2023-08-06T00:30:23;22.40;67.90
38237;DHT22;50101;49.438;11.098;2023-08-06T00:32:49;22.40;67.80
38237;DHT22;50101;49.438;11.098;2023-08-06T00:35:16;22.40;67.90
38237;DHT22;50101;49.438;11.098;2023-08-06T00:37:43;22.40;68.10
38237;DHT22;50101;49.438;11.098;2023-08-06T00:40:09;22.30;67.80
38237;DHT22;50101;49.438;11.098;2023-08-06T00:42:36;22.30;67.70
38237;DHT22;50101;49.438;11.098;2023-08-06T00:45:03;22.40;67.90
38237;DHT22;50101;49.438;11.098;2023-08-06T00:47:31;22.40;67.80
38237;DHT22;50101;49.438;11.098;2023-08-06T00:49:57;22.30;67.70
38237;DHT22;50101;49.438;11.098;2023-08-06T00:52:24;22.40;67.80
38237;DHT22;50101;49.438;11.098;2023-08-06T00:54:51;22.40;67.80
38237;DHT22;50101;49.438;11.098;2023-08-06T00:57:21;22.40;67.80
38237;DHT22;50101;49.438;11.098;2023-08-06T00:59:51;22.30;67.70
38237;DHT22;50101;49.438;11.098;2023-08-06T01:02:18;22.30;67.70
38237;DHT22;50101;49.438;11.098;2023-08-06T01:04:44;22.30;67.70
38237;DHT22;50101;49.438;11.098;2023-08-06T01:10:23;22.30;67.70
38237;DHT22;50101;49.438;11.098;2023-08-06T01:15:55;22.30;67.70
38237;DHT22;50101;49.438;11.098;2023-08-06T01:18:26;22.30;67.70
38237;DHT22;50101;49.438;11.098;2023-08-06T01:20:52;22.30;67.70
38237;DHT22;50101;49.438;11.098;2023-08-06T01:23:20;22.30;67.80
38237;DHT22;50101;49.438;11.098;2023-08-06T01:26:10;22.40;67.80
38237;DHT22;50101;49.438;11.098;2023-08-06T01:28:59;22.30;67.70
38237;DHT22;50101;49.438;11.098;2023-08-06T01:31:36;22.30;67.80
38237;DHT22;50101;49.438;11.098;2023-08-06T01:34:06;22.30;67.70
38237;DHT22;50101;49.438;11.098;2023-08-06T01:36:33;22.30;67.70
38237;DHT22;50101;49.438;11.098;2023-08-06T01:39:00;22.30;67.70
38237;DHT22;50101;49.438;11.098;2023-08-06T01:41:27;22.30;67.80
38237;DHT22;50101;49.438;11.098;2023-08-06T01:43:54;22.30;67.70
38237;DHT22;50101;49.438;11.098;2023-08-06T01:46:20;22.30;67.70
38237;DHT22;50101;49.438;11.098;2023-08-06T01:48:47;22.30;67.70
38237;DHT22;50101;49.438;11.098;2023-08-06T01:51:14;22.30;67.70
38237;DHT22;50101;49.438;11.098;2023-08-06T01:53:40;22.30;67.60
38237;DHT22;50101;49.438;11.098;2023-08-06T01:56:07;22.30;67.70
38237;DHT22;50101;49.438;11.098;2023-08-06T01:58:34;22.30;67.70
38237;DHT22;50101;49.438;11.098;2023-08-06T02:01:01;22.30;67.70
38237;DHT22;50101;49.438;11.098;2023-08-06T02:03:28;22.30;67.70
38237;DHT22;50101;49.438;11.098;2023-08-06T02:05:55;22.30;67.70
38237;DHT22;50101;49.438;11.098;2023-08-06T02:08:22;22.30;67.60
38237;DHT22;50101;49.438;11.098;2023-08-06T02:10:49;22.30;67.60
38237;DHT22;50101;49.438;11.098;2023-08-06T02:13:15;22.30;67.70
38237;DHT22;50101;49.438;11.098;2023-08-06T02:15:43;22.30;67.70
38237;DHT22;50101;49.438;11.098;2023-08-06T02:18:10;22.30;67.70
38237;DHT22;50101;49.438;11.098;2023-08-06T02:20:37;22.30;67.70
38237;DHT22;50101;49.438;11.098;2023-08-06T02:23:03;22.30;67.70
38237;DHT22;50101;49.438;11.098;2023-08-06T02:25:30;22.30;67.70
38237;DHT22;50101;49.438;11.098;2023-08-06T02:27:57;22.30;67.60
38237;DHT22;50101;49.438;11.098;2023-08-06T02:30:23;22.30;67.60
38237;DHT22;50101;49.438;11.098;2023-08-06T02:32:50;22.30;68.40
38237;DHT22;50101;49.438;11.098;2023-08-06T02:35:17;22.30;67.60
38237;DHT22;50101;49.438;11.098;2023-08-06T02:37:44;22.30;67.60
38237;DHT22;50101;49.438;11.098;2023-08-06T02:40:11;22.30;67.60
38237;DHT22;50101;49.438;11.098;2023-08-06T02:42:37;22.30;67.70
38237;DHT22;50101;49.438;11.098;2023-08-06T02:45:04;22.30;67.60
38237;DHT22;50101;49.438;11.098;2023-08-06T02:47:31;22.30;67.60
38237;DHT22;50101;49.438;11.098;2023-08-06T02:49:58;22.30;67.70
38237;DHT22;50101;49.438;11.098;2023-08-06T02:52:25;22.30;67.70
38237;DHT22;50101;49.438;11.098;2023-08-06T02:54:52;22.30;67.60
38237;DHT22;50101;49.438;11.098;2023-08-06T02:57:18;22.30;67.70
38237;DHT22;50101;49.438;11.098;2023-08-06T02:59:45;22.30;67.60
38237;DHT22;50101;49.438;11.098;2023-08-06T03:02:12;22.30;67.70
38237;DHT22;50101;49.438;11.098;2023-08-06T03:04:38;22.30;67.60
38237;DHT22;50101;49.438;11.098;2023-08-06T03:07:05;22.30;67.60
38237;DHT22;50101;49.438;11.098;2023-08-06T03:09:32;22.30;67.60
38237;DHT22;50101;49.438;11.098;2023-08-06T03:11:59;22.30;67.70
38237;DHT22;50101;49.438;11.098;2023-08-06T03:14:25;22.30;67.60
38237;DHT22;50101;49.438;11.098;2023-08-06T03:16:52;22.30;67.60
38237;DHT22;50101;49.438;11.098;2023-08-06T03:19:19;22.20;67.50
38237;DHT22;50101;49.438;11.098;2023-08-06T03:21:45;22.30;67.60
38237;DHT22;50101;49.438;11.098;2023-08-06T03:24:13;22.30;67.60
38237;DHT22;50101;49.438;11.098;2023-08-06T03:26:40;22.30;67.60
38237;DHT22;50101;49.438;11.098;2023-08-06T03:29:07;22.30;67.60
38237;DHT22;50101;49.438;11.098;2023-08-06T03:31:34;22.20;67.60
38237;DHT22;50101;49.438;11.098;2023-08-06T03:34:01;22.20;67.50
38237;DHT22;50101;49.438;11.098;2023-08-06T03:36:28;22.30;67.60
38237;DHT22;50101;49.438;11.098;2023-08-06T03:38:54;22.20;67.50
38237;DHT22;50101;49.438;11.098;2023-08-06T03:41:21;22.20;67.50
38237;DHT22;50101;49.438;11.098;2023-08-06T03:43:48;22.30;67.60
38237;DHT22;50101;49.438;11.098;2023-08-06T03:46:15;22.30;67.60
38237;DHT22;50101;49.438;11.098;2023-08-06T03:48:41;22.20;67.50
38237;DHT22;50101;49.438;11.098;2023-08-06T03:51:08;22.30;67.60
38237;DHT22;50101;49.438;11.098;2023-08-06T03:53:35;22.30;67.60
38237;DHT22;50101;49.438;11.098;2023-08-06T03:56:01;22.30;67.60
38237;DHT22;50101;49.438;11.098;2023-08-06T03:58:28;22.30;67.50
38237;DHT22;50101;49.438;11.098;2023-08-06T04:01:02;22.30;67.50
38237;DHT22;50101;49.438;11.098;2023-08-06T04:03:29;22.20;67.50
38237;DHT22;50101;49.438;11.098;2023-08-06T04:05:56;22.20;67.50
38237;DHT22;50101;49.438;11.098;2023-08-06T04:08:23;22.20;67.50
38237;DHT22;50101;49.438;11.098;2023-08-06T04:10:51;22.30;67.60
38237;DHT22;50101;49.438;11.098;2023-08-06T04:13:18;22.20;67.40
38237;DHT22;50101;49.438;11.098;2023-08-06T04:15:46;22.20;67.40
38237;DHT22;50101;49.438;11.098;2023-08-06T04:18:12;22.20;67.50
38237;DHT22;50101;49.438;11.098;2023-08-06T04:20:43;22.20;67.50
38237;DHT22;50101;49.438;11.098;2023-08-06T04:23:11;22.20;67.50
38237;DHT22;50101;49.438;11.098;2023-08-06T04:25:38;22.20;67.50
38237;DHT22;50101;49.438;11.098;2023-08-06T04:28:05;22.20;67.50
38237;DHT22;50101;49.438;11.098;2023-08-06T04:30:31;22.20;67.40
38237;DHT22;50101;49.438;11.098;2023-08-06T04:32:58;22.20;67.50
38237;DHT22;50101;49.438;11.098;2023-08-06T04:35:25;22.20;67.50
38237;DHT22;50101;49.438;11.098;2023-08-06T04:37:52;22.20;67.50
38237;DHT22;50101;49.438;11.098;2023-08-06T04:40:19;22.20;67.50
38237;DHT22;50101;49.438;11.098;2023-08-06T04:42:45;22.20;67.50
38237;DHT22;50101;49.438;11.098;2023-08-06T04:45:12;22.20;67.40
38237;DHT22;50101;49.438;11.098;2023-08-06T04:47:39;22.20;67.50
38237;DHT22;50101;49.438;11.098;2023-08-06T04:50:06;22.20;67.40
38237;DHT22;50101;49.438;11.098;2023-08-06T04:52:32;22.20;67.40
38237;DHT22;50101;49.438;11.098;2023-08-06T04:54:59;22.20;67.50
38237;DHT22;50101;49.438;11.098;2023-08-06T04:57:26;22.20;67.40
38237;DHT22;50101;49.438;11.098;2023-08-06T04:59:52;22.20;67.40
38237;DHT22;50101;49.438;11.098;2023-08-06T05:02:19;22.20;67.40
38237;DHT22;50101;49.438;11.098;2023-08-06T05:04:46;22.20;67.50
38237;DHT22;50101;49.438;11.098;2023-08-06T05:07:13;22.20;67.40
38237;DHT22;50101;49.438;11.098;2023-08-06T05:09:39;22.20;67.40
38237;DHT22;50101;49.438;11.098;2023-08-06T05:12:06;22.20;67.40
38237;DHT22;50101;49.438;11.098;2023-08-06T05:14:33;22.20;67.40
38237;DHT22;50101;49.438;11.098;2023-08-06T05:17:00;22.20;67.40
38237;DHT22;50101;49.438;11.098;2023-08-06T05:19:28;22.20;67.40
38237;DHT22;50101;49.438;11.098;2023-08-06T05:21:55;22.20;67.40
38237;DHT22;50101;49.438;11.098;2023-08-06T05:24:22;22.20;67.40
38237;DHT22;50101;49.438;11.098;2023-08-06T05:26:48;22.20;67.40
38237;DHT22;50101;49.438;11.098;2023-08-06T05:29:16;22.20;67.40
38237;DHT22;50101;49.438;11.098;2023-08-06T05:31:43;22.20;67.40
38237;DHT22;50101;49.438;11.098;2023-08-06T05:34:10;22.20;67.30
38237;DHT22;50101;49.438;11.098;2023-08-06T05:36:37;22.20;67.40
38237;DHT22;50101;49.438;11.098;2023-08-06T05:39:03;22.20;67.50
38237;DHT22;50101;49.438;11.098;2023-08-06T05:41:30;22.20;67.40
38237;DHT22;50101;49.438;11.098;2023-08-06T05:43:57;22.20;67.40
38237;DHT22;50101;49.438;11.098;2023-08-06T05:46:24;22.20;67.40
38237;DHT22;50101;49.438;11.098;2023-08-06T05:48:50;22.20;68.10
38237;DHT22;50101;49.438;11.098;2023-08-06T05:51:17;22.20;67.40
38237;DHT22;50101;49.438;11.098;2023-08-06T05:53:44;22.20;67.40
38237;DHT22;50101;49.438;11.098;2023-08-06T05:56:12;22.20;67.40
38237;DHT22;50101;49.438;11.098;2023-08-06T05:58:39;22.20;67.40
38237;DHT22;50101;49.438;11.098;2023-08-06T06:01:05;22.20;67.40
38237;DHT22;50101;49.438;11.098;2023-08-06T06:03:32;22.20;67.40
38237;DHT22;50101;49.438;11.098;2023-08-06T06:06:01;22.20;67.40
38237;DHT22;50101;49.438;11.098;2023-08-06T06:08:28;22.20;67.40
38237;DHT22;50101;49.438;11.098;2023-08-06T06:10:54;22.20;67.30
38237;DHT22;50101;49.438;11.098;2023-08-06T06:13:21;22.20;67.40
38237;DHT22;50101;49.438;11.098;2023-08-06T06:15:48;22.20;67.30
38237;DHT22;50101;49.438;11.098;2023-08-06T06:18:15;22.20;67.30
38237;DHT22;50101;49.438;11.098;2023-08-06T06:20:41;22.20;67.30
38237;DHT22;50101;49.438;11.098;2023-08-06T06:23:08;22.20;67.30
38237;DHT22;50101;49.438;11.098;2023-08-06T06:25:34;22.20;67.30
38237;DHT22;50101;49.438;11.098;2023-08-06T06:28:01;22.30;67.40
38237;DHT22;50101;49.438;11.098;2023-08-06T06:30:28;22.30;67.40
38237;DHT22;50101;49.438;11.098;2023-08-06T06:32:55;22.30;67.40
38237;DHT22;50101;49.438;11.098;2023-08-06T06:35:22;22.20;67.30
38237;DHT22;50101;49.438;11.098;2023-08-06T06:37:48;22.30;67.40
38237;DHT22;50101;49.438;11.098;2023-08-06T06:40:15;22.20;67.30
38237;DHT22;50101;49.438;11.098;2023-08-06T06:42:45;22.30;67.30
38237;DHT22;50101;49.438;11.098;2023-08-06T06:45:12;22.30;67.30
38237;DHT22;50101;49.438;11.098;2023-08-06T06:47:38;22.30;67.20
38237;DHT22;50101;49.438;11.098;2023-08-06T06:50:06;22.30;67.20
38237;DHT22;50101;49.438;11.098;2023-08-06T06:52:32;22.30;67.30
38237;DHT22;50101;49.438;11.098;2023-08-06T06:54:59;22.30;67.30
38237;DHT22;50101;49.438;11.098;2023-08-06T06:57:26;22.30;67.40
38237;DHT22;50101;49.438;11.098;2023-08-06T06:59:53;22.40;67.70
38237;DHT22;50101;49.438;11.098;2023-08-06T07:02:19;22.40;67.70
38237;DHT22;50101;49.438;11.098;2023-08-06T07:04:46;22.40;67.50
38237;DHT22;50101;49.438;11.098;2023-08-06T07:07:13;22.30;67.50
38237;DHT22;50101;49.438;11.098;2023-08-06T07:09:40;22.30;67.60
38237;DHT22;50101;49.438;11.098;2023-08-06T07:12:06;22.30;67.60
38237;DHT22;50101;49.438;11.098;2023-08-06T07:14:33;22.30;67.70
38237;DHT22;50101;49.438;11.098;2023-08-06T07:17:00;22.30;67.70
38237;DHT22;50101;49.438;11.098;2023-08-06T07:19:27;22.30;67.60
38237;DHT22;50101;49.438;11.098;2023-08-06T07:21:54;22.30;67.60
38237;DHT22;50101;49.438;11.098;2023-08-06T07:24:22;22.30;67.60
38237;DHT22;50101;49.438;11.098;2023-08-06T07:26:49;22.30;67.60
38237;DHT22;50101;49.438;11.098;2023-08-06T07:29:16;22.30;67.50
38237;DHT22;50101;49.438;11.098;2023-08-06T07:31:47;22.30;67.60
38237;DHT22;50101;49.438;11.098;2023-08-06T07:34:17;22.30;67.50
38237;DHT22;50101;49.438;11.098;2023-08-06T07:36:45;22.30;67.60
38237;DHT22;50101;49.438;11.098;2023-08-06T07:39:12;22.30;67.60
38237;DHT22;50101;49.438;11.098;2023-08-06T07:41:39;22.30;67.60
38237;DHT22;50101;49.438;11.098;2023-08-06T07:44:06;22.30;67.50
38237;DHT22;50101;49.438;11.098;2023-08-06T07:46:32;22.30;67.60
38237;DHT22;50101;49.438;11.098;2023-08-06T07:48:59;22.30;67.50
38237;DHT22;50101;49.438;11.098;2023-08-06T07:51:26;22.30;67.50
38237;DHT22;50101;49.438;11.098;2023-08-06T07:53:53;22.30;67.30
38237;DHT22;50101;49.438;11.098;2023-08-06T07:56:19;22.40;67.50
38237;DHT22;50101;49.438;11.098;2023-08-06T07:58:46;22.40;67.40
38237;DHT22;50101;49.438;11.098;2023-08-06T08:01:13;22.40;68.20
38237;DHT22;50101;49.438;11.098;2023-08-06T08:03:40;22.40;67.60
38237;DHT22;50101;49.438;11.098;2023-08-06T08:06:06;22.40;67.50
38237;DHT22;50101;49.438;11.098;2023-08-06T08:08:34;22.40;67.60
38237;DHT22;50101;49.438;11.098;2023-08-06T08:11:05;22.40;67.60
38237;DHT22;50101;49.438;11.098;2023-08-06T08:13:32;22.40;67.90
38237;DHT22;50101;49.438;11.098;2023-08-06T08:15:59;22.40;67.60
38237;DHT22;50101;49.438;11.098;2023-08-06T08:18:26;22.50;68.10
38237;DHT22;50101;49.438;11.098;2023-08-06T08:20:53;22.50;67.90
38237;DHT22;50101;49.438;11.098;2023-08-06T08:23:20;22.50;67.80
38237;DHT22;50101;49.438;11.098;2023-08-06T08:25:46;22.50;67.80
38237;DHT22;50101;49.438;11.098;2023-08-06T08:28:13;22.50;67.70
38237;DHT22;50101;49.438;11.098;2023-08-06T08:30:43;22.50;68.20
38237;DHT22;50101;49.438;11.098;2023-08-06T08:33:09;22.50;67.80
38237;DHT22;50101;49.438;11.098;2023-08-06T08:35:36;22.50;67.90
38237;DHT22;50101;49.438;11.098;2023-08-06T08:38:04;22.50;68.30
38237;DHT22;50101;49.438;11.098;2023-08-06T08:40:32;22.60;68.40
38237;DHT22;50101;49.438;11.098;2023-08-06T08:43:00;22.60;68.20
38237;DHT22;50101;49.438;11.098;2023-08-06T08:45:29;22.50;68.00
38237;DHT22;50101;49.438;11.098;2023-08-06T08:47:56;22.50;68.10
38237;DHT22;50101;49.438;11.098;2023-08-06T08:50:23;22.50;68.20
38237;DHT22;50101;49.438;11.098;2023-08-06T08:52:50;22.50;68.10
38237;DHT22;50101;49.438;11.098;2023-08-06T08:55:17;22.50;68.20
38237;DHT22;50101;49.438;11.098;2023-08-06T08:57:44;22.50;68.10
38237;DHT22;50101;49.438;11.098;2023-08-06T09:00:11;22.50;68.10
38237;DHT22;50101;49.438;11.098;2023-08-06T09:02:39;22.50;68.20
38237;DHT22;50101;49.438;11.098;2023-08-06T09:05:07;22.50;68.20
38237;DHT22;50101;49.438;11.098;2023-08-06T09:07:42;22.50;68.20
38237;DHT22;50101;49.438;11.098;2023-08-06T09:10:14;22.50;68.20
38237;DHT22;50101;49.438;11.098;2023-08-06T09:12:42;22.50;68.30
38237;DHT22;50101;49.438;11.098;2023-08-06T09:15:10;22.60;68.10
38237;DHT22;50101;49.438;11.098;2023-08-06T09:17:36;22.60;68.40
38237;DHT22;50101;49.438;11.098;2023-08-06T09:20:13;22.60;68.10
38237;DHT22;50101;49.438;11.098;2023-08-06T09:22:41;22.60;68.30
38237;DHT22;50101;49.438;11.098;2023-08-06T09:25:08;22.60;68.00
38237;DHT22;50101;49.438;11.098;2023-08-06T09:27:39;22.60;68.20
38237;DHT22;50101;49.438;11.098;2023-08-06T09:30:07;22.60;68.40
38237;DHT22;50101;49.438;11.098;2023-08-06T09:32:46;22.70;69.30
38237;DHT22;50101;49.438;11.098;2023-08-06T09:35:19;22.80;68.80
38237;DHT22;50101;49.438;11.098;2023-08-06T09:37:46;22.80;68.60
38237;DHT22;50101;49.438;11.098;2023-08-06T09:40:33;22.70;68.70
38237;DHT22;50101;49.438;11.098;2023-08-06T09:43:00;22.70;68.70
38237;DHT22;50101;49.438;11.098;2023-08-06T09:45:33;22.70;68.60
38237;DHT22;50101;49.438;11.098;2023-08-06T09:48:03;22.60;68.50
38237;DHT22;50101;49.438;11.098;2023-08-06T09:50:31;22.60;68.40
38237;DHT22;50101;49.438;11.098;2023-08-06T09:52:59;22.60;68.40
38237;DHT22;50101;49.438;11.098;2023-08-06T09:55:26;22.60;68.30
38237;DHT22;50101;49.438;11.098;2023-08-06T09:57:54;22.60;68.30
38237;DHT22;50101;49.438;11.098;2023-08-06T10:00:22;22.60;68.40
38237;DHT22;50101;49.438;11.098;2023-08-06T10:02:50;22.60;68.30
38237;DHT22;50101;49.438;11.098;2023-08-06T10:05:20;22.60;68.40
38237;DHT22;50101;49.438;11.098;2023-08-06T10:07:48;22.60;68.20
38237;DHT22;50101;49.438;11.098;2023-08-06T10:10:15;22.60;68.60
38237;DHT22;50101;49.438;11.098;2023-08-06T10:12:49;22.70;68.50
38237;DHT22;50101;49.438;11.098;2023-08-06T10:15:20;22.60;68.60
38237;DHT22;50101;49.438;11.098;2023-08-06T10:17:50;22.60;68.50
38237;DHT22;50101;49.438;11.098;2023-08-06T10:20:18;22.60;68.40
38237;DHT22;50101;49.438;11.098;2023-08-06T10:22:46;22.60;68.40
38237;DHT22;50101;49.438;11.098;2023-08-06T10:25:25;22.60;68.40
38237;DHT22;50101;49.438;11.098;2023-08-06T10:30:28;22.60;68.60
38237;DHT22;50101;49.438;11.098;2023-08-06T10:32:57;22.70;68.60
38237;DHT22;50101;49.438;11.098;2023-08-06T10:38:10;22.70;68.50
38237;DHT22;50101;49.438;11.098;2023-08-06T10:40:42;22.70;68.60
38237;DHT22;50101;49.438;11.098;2023-08-06T10:43:25;22.70;68.60
38237;DHT22;50101;49.438;11.098;2023-08-06T10:45:52;22.70;68.60
38237;DHT22;50101;49.438;11.098;2023-08-06T10:48:38;22.70;68.50
38237;DHT22;50101;49.438;11.098;2023-08-06T10:51:10;22.70;68.40
38237;DHT22;50101;49.438;11.098;2023-08-06T10:53:42;22.60;68.00
38237;DHT22;50101;49.438;11.098;2023-08-06T10:56:16;22.60;68.20
38237;DHT22;50101;49.438;11.098;2023-08-06T10:58:45;22.60;68.40
38237;DHT22;50101;49.438;11.098;2023-08-06T11:01:12;22.60;68.40
38237;DHT22;50101;49.438;11.098;2023-08-06T11:03:39;22.60;68.40
38237;DHT22;50101;49.438;11.098;2023-08-06T11:06:07;22.60;68.40
38237;DHT22;50101;49.438;11.098;2023-08-06T11:08:35;22.60;68.40
38237;DHT22;50101;49.438;11.098;2023-08-06T11:11:10;22.60;68.30
38237;DHT22;50101;49.438;11.098;2023-08-06T11:13:44;22.60;67.70
38237;DHT22;50101;49.438;11.098;2023-08-06T11:16:17;22.60;68.30
38237;DHT22;50101;49.438;11.098;2023-08-06T11:18:45;22.60;68.30
38237;DHT22;50101;49.438;11.098;2023-08-06T11:21:12;22.60;68.40
38237;DHT22;50101;49.438;11.098;2023-08-06T11:23:40;22.60;68.30
38237;DHT22;50101;49.438;11.098;2023-08-06T11:26:07;22.60;68.30
38237;DHT22;50101;49.438;11.098;2023-08-06T11:28:34;22.60;68.30
38237;DHT22;50101;49.438;11.098;2023-08-06T11:31:01;22.60;68.30
38237;DHT22;50101;49.438;11.098;2023-08-06T11:33:29;22.60;68.30
38237;DHT22;50101;49.438;11.098;2023-08-06T11:35:58;22.60;68.30
38237;DHT22;50101;49.438;11.098;2023-08-06T11:38:27;22.60;68.20
38237;DHT22;50101;49.438;11.098;2023-08-06T11:40:56;22.60;68.20
38237;DHT22;50101;49.438;11.098;2023-08-06T11:43:30;22.60;68.20
38237;DHT22;50101;49.438;11.098;2023-08-06T11:45:57;22.60;68.20
38237;DHT22;50101;49.438;11.098;2023-08-06T11:48:25;22.60;68.20
38237;DHT22;50101;49.438;11.098;2023-08-06T11:50:54;22.60;68.20
38237;DHT22;50101;49.438;11.098;2023-08-06T11:53:27;22.60;68.30
38237;DHT22;50101;49.438;11.098;2023-08-06T11:55:54;22.60;68.30
38237;DHT22;50101;49.438;11.098;2023-08-06T11:58:21;22.60;68.20
38237;DHT22;50101;49.438;11.098;2023-08-06T12:00:48;22.60;68.30
38237;DHT22;50101;49.438;11.098;2023-08-06T12:03:19;22.60;68.40
38237;DHT22;50101;49.438;11.098;2023-08-06T12:05:46;22.60;68.40
38237;DHT22;50101;49.438;11.098;2023-08-06T12:08:13;22.60;68.30
38237;DHT22;50101;49.438;11.098;2023-08-06T12:10:40;22.60;68.30
38237;DHT22;50101;49.438;11.098;2023-08-06T12:13:06;22.60;68.30
38237;DHT22;50101;49.438;11.098;2023-08-06T12:15:33;22.60;68.20
38237;DHT22;50101;49.438;11.098;2023-08-06T12:18:00;22.60;68.30
38237;DHT22;50101;49.438;11.098;2023-08-06T12:20:27;22.60;68.40
38237;DHT22;50101;49.438;11.098;2023-08-06T12:22:55;22.60;68.40
38237;DHT22;50101;49.438;11.098;2023-08-06T12:25:21;22.60;68.40
38237;DHT22;50101;49.438;11.098;2023-08-06T12:27:50;22.60;68.30
38237;DHT22;50101;49.438;11.098;2023-08-06T12:30:16;22.60;68.20
38237;DHT22;50101;49.438;11.098;2023-08-06T12:32:43;22.60;68.30
38237;DHT22;50101;49.438;11.098;2023-08-06T12:35:10;22.60;68.30
38237;DHT22;50101;49.438;11.098;2023-08-06T12:37:36;22.60;68.20
38237;DHT22;50101;49.438;11.098;2023-08-06T12:40:05;22.60;68.20
38237;DHT22;50101;49.438;11.098;2023-08-06T12:42:53;22.60;68.30
38237;DHT22;50101;49.438;11.098;2023-08-06T12:45:20;22.60;68.20
38237;DHT22;50101;49.438;11.098;2023-08-06T12:47:49;22.60;68.30
38237;DHT22;50101;49.438;11.098;2023-08-06T12:50:17;22.60;68.30
38237;DHT22;50101;49.438;11.098;2023-08-06T12:52:44;22.60;68.30
38237;DHT22;50101;49.438;11.098;2023-08-06T12:55:10;22.60;68.30
38237;DHT22;50101;49.438;11.098;2023-08-06T12:57:37;22.60;68.50
38237;DHT22;50101;49.438;11.098;2023-08-06T13:00:22;22.60;68.40
38237;DHT22;50101;49.438;11.098;2023-08-06T13:02:49;22.60;68.40
38237;DHT22;50101;49.438;11.098;2023-08-06T13:05:16;22.60;68.30
38237;DHT22;50101;49.438;11.098;2023-08-06T13:07:43;22.60;68.30
38237;DHT22;50101;49.438;11.098;2023-08-06T13:10:09;22.60;68.30
38237;DHT22;50101;49.438;11.098;2023-08-06T13:12:36;22.60;68.30
38237;DHT22;50101;49.438;11.098;2023-08-06T13:15:03;22.60;68.30
38237;DHT22;50101;49.438;11.098;2023-08-06T13:17:33;22.60;68.40
38237;DHT22;50101;49.438;11.098;2023-08-06T13:19:59;22.60;68.40
38237;DHT22;50101;49.438;11.098;2023-08-06T13:22:26;22.60;68.30
38237;DHT22;50101;49.438;11.098;2023-08-06T13:24:53;22.60;68.30
38237;DHT22;50101;49.438;11.098;2023-08-06T13:27:19;22.60;68.30
38237;DHT22;50101;49.438;11.098;2023-08-06T13:29:46;22.60;68.30
38237;DHT22;50101;49.438;11.098;2023-08-06T13:32:14;22.60;68.40
38237;DHT22;50101;49.438;11.098;2023-08-06T13:34:40;22.60;68.30
38237;DHT22;50101;49.438;11.098;2023-08-06T13:37:07;22.60;68.40
38237;DHT22;50101;49.438;11.098;2023-08-06T13:39:34;22.60;68.30
38237;DHT22;50101;49.438;11.098;2023-08-06T13:42:00;22.60;68.40
38237;DHT22;50101;49.438;11.098;2023-08-06T13:44:27;22.60;68.40
38237;DHT22;50101;49.438;11.098;2023-08-06T13:46:55;22.60;68.30
38237;DHT22;50101;49.438;11.098;2023-08-06T13:49:22;22.60;68.30
38237;DHT22;50101;49.438;11.098;2023-08-06T13:51:49;22.50;68.20
38237;DHT22;50101;49.438;11.098;2023-08-06T13:54:15;22.60;68.40
38237;DHT22;50101;49.438;11.098;2023-08-06T13:56:43;22.50;69.10
38237;DHT22;50101;49.438;11.098;2023-08-06T13:59:10;22.50;68.30
38237;DHT22;50101;49.438;11.098;2023-08-06T14:01:39;22.60;68.50
38237;DHT22;50101;49.438;11.098;2023-08-06T14:04:16;22.50;68.30
38237;DHT22;50101;49.438;11.098;2023-08-06T14:06:43;22.50;68.30
38237;DHT22;50101;49.438;11.098;2023-08-06T14:09:10;22.50;68.30
38237;DHT22;50101;49.438;11.098;2023-08-06T14:11:39;22.50;68.30
38237;DHT22;50101;49.438;11.098;2023-08-06T14:14:05;22.50;68.40
38237;DHT22;50101;49.438;11.098;2023-08-06T14:16:32;22.50;68.40
38237;DHT22;50101;49.438;11.098;2023-08-06T14:18:59;22.50;68.50
38237;DHT22;50101;49.438;11.098;2023-08-06T14:21:25;22.50;68.40
38237;DHT22;50101;49.438;11.098;2023-08-06T14:23:52;22.50;68.40
38237;DHT22;50101;49.438;11.098;2023-08-06T14:26:19;22.50;68.50
38237;DHT22;50101;49.438;11.098;2023-08-06T14:28:46;22.50;68.50
38237;DHT22;50101;49.438;11.098;2023-08-06T14:31:13;22.50;68.50
38237;DHT22;50101;49.438;11.098;2023-08-06T14:33:39;22.50;68.50
38237;DHT22;50101;49.438;11.098;2023-08-06T14:36:06;22.50;68.60
38237;DHT22;50101;49.438;11.098;2023-08-06T14:38:33;22.50;68.60
38237;DHT22;50101;49.438;11.098;2023-08-06T14:41:12;22.50;68.60
38237;DHT22;50101;49.438;11.098;2023-08-06T14:43:38;22.40;68.50
38237;DHT22;50101;49.438;11.098;2023-08-06T14:46:05;22.50;68.60
38237;DHT22;50101;49.438;11.098;2023-08-06T14:48:32;22.50;68.70
38237;DHT22;50101;49.438;11.098;2023-08-06T14:50:59;22.40;68.50
38237;DHT22;50101;49.438;11.098;2023-08-06T14:53:26;22.40;68.50
38237;DHT22;50101;49.438;11.098;2023-08-06T14:55:52;22.40;68.40
38237;DHT22;50101;49.438;11.098;2023-08-06T14:58:20;22.40;68.50
38237;DHT22;50101;49.438;11.098;2023-08-06T15:00:47;22.40;68.40
38237;DHT22;50101;49.438;11.098;2023-08-06T15:03:13;22.40;68.40
38237;DHT22;50101;49.438;11.098;2023-08-06T15:05:43;22.40;68.40
38237;DHT22;50101;49.438;11.098;2023-08-06T15:08:11;22.40;68.40
38237;DHT22;50101;49.438;11.098;2023-08-06T15:10:37;22.40;68.40
38237;DHT22;50101;49.438;11.098;2023-08-06T15:13:04;22.40;68.40
38237;DHT22;50101;49.438;11.098;2023-08-06T15:15:31;22.40;68.40
38237;DHT22;50101;49.438;11.098;2023-08-06T15:17:58;22.40;68.40
38237;DHT22;50101;49.438;11.098;2023-08-06T15:20:25;22.40;68.40
38237;DHT22;50101;49.438;11.098;2023-08-06T15:22:51;22.40;68.40
38237;DHT22;50101;49.438;11.098;2023-08-06T15:25:18;22.40;68.30
38237;DHT22;50101;49.438;11.098;2023-08-06T15:27:45;22.40;68.30
38237;DHT22;50101;49.438;11.098;2023-08-06T15:30:12;22.40;68.30